Airfield :
LOGIN :

Register | Disclaimer

   EN    FR    IT 

 










Legend :    VFR   Marginal VFR   IFR   Intensive IFR   Very Intensive IFR
Visi :
Ceiling :
>= 8 km
>= 3000ft
5 to 8 km
1000 to 3000 ft
1500m to 5 km
500 to 1000 ft
800 to 1500m
200 to 500 ft
< 800m
< 200 ft
Symbols :   Thunderstorms  Fog  Heavy snow  Heavy precipitations  Wind > 20 kt
SIGMETs :     Misc.  Thunderstorms  Icing  Turbulence  Mountain Waves  Volcanic Ashes







- Airport Elevation : -11 ft
- IATA code : AMS


EHAM - Amsterdam Schiphol

CURRENT METAR :
  • 160825Z 23009KT 200V270 9999 FEW022 SCT043 18/13 Q1018 NOSIG

EXPIRED METARs :
  • 160755Z 20010KT 170V250 9999 FEW019 SCT022 19/14 Q1018 NOSIG
  • 160725Z 21010KT 180V260 9999 FEW019 17/13 Q1018 NOSIG
  • 160655Z 21012KT 170V260 9999 FEW019 17/13 Q1017 NOSIG
  • 160625Z 22010KT 9999 FEW016 17/13 Q1017 NOSIG
  • 160555Z 22008KT 9999 FEW015 17/13 Q1017 NOSIG
  • 160525Z 22009KT 190V250 CAVOK 16/13 Q1017 NOSIG

TAF TAF EHAM
Valid from the 16 at 06:00 until the 17 at 12:00 UTC


160430Z 1606/1712 24011KT 9999 SCT025
BECMG 1618/1621 18004KT CAVOK
No reported NOTAMs for that airfield.



MET'MAP, your aeronautical weather chart ! - Copyright ORBIFLY December 2007 - Disclaimer

ORBIFLY MET'MAP TEAM :

Programming & Development : Alexandra Zaïnal
Concept & Development : Baudouin d'Aumeries
Co-Development & Prog : Marc-Olivier Méhu
Technical & hardware support : Manuel Goepfert

Contact : metmap@orbifly.com




SOURCES & CREDITS :

   NOAA